Time;durP1;ratioP1;P1;durP2;ratioP2;P2;SDS_P1;SDS_P2;PMS_P1;PMS_P2;Temp;Humidity;BMP_temperature;BMP_pressure;BME280_temperature;BME280_humidity;BME280_pressure;Samples;Min_cycle;Max_cycle;Signal;HPM_P1;HPM_P2
2023/05/31 00:02:16;;;;;;;7.47;5.00;;;10.80;99.90;;;;;;5156417;27;20371;-72
2023/05/31 00:04:41;;;;;;;7.60;4.28;;;10.80;99.90;;;;;;5156139;27;20051;-72
2023/05/31 00:07:07;;;;;;;6.20;4.75;;;10.80;99.90;;;;;;5156505;27;20045;-72
2023/05/31 00:09:34;;;;;;;9.90;5.68;;;10.70;99.90;;;;;;5156357;27;20051;-71
2023/05/31 00:11:59;;;;;;;10.07;5.38;;;10.70;99.90;;;;;;5156204;27;20072;-72
2023/05/31 00:14:25;;;;;;;5.38;4.68;;;10.70;99.90;;;;;;5137437;27;20534;-72
2023/05/31 00:16:52;;;;;;;7.82;4.78;;;10.70;99.90;;;;;;5155888;27;20134;-72
2023/05/31 00:19:18;;;;;;;10.18;5.45;;;10.70;99.90;;;;;;5137778;27;20131;-72
2023/05/31 00:21:45;;;;;;;7.43;5.07;;;10.70;99.90;;;;;;5155949;27;20090;-72
2023/05/31 00:24:14;;;;;;;8.00;5.40;;;10.70;99.90;;;;;;5155986;27;20039;-72
2023/05/31 00:26:39;;;;;;;6.57;4.25;;;10.70;99.90;;;;;;5155666;27;20046;-72
2023/05/31 00:29:05;;;;;;;7.45;3.38;;;10.70;99.90;;;;;;5154599;27;20054;-72
2023/05/31 00:31:31;;;;;;;8.95;4.80;;;10.60;99.90;;;;;;5155572;27;20058;-72
2023/05/31 00:33:57;;;;;;;6.25;4.43;;;10.60;99.90;;;;;;5137101;27;20389;-72
2023/05/31 00:36:23;;;;;;;5.40;4.20;;;10.60;99.90;;;;;;5155459;27;20054;-72
2023/05/31 00:38:49;;;;;;;6.78;4.50;;;10.60;99.90;;;;;;5155243;27;20050;-72
2023/05/31 00:41:15;;;;;;;7.38;4.15;;;10.60;99.90;;;;;;5137235;27;20043;-72
2023/05/31 00:43:41;;;;;;;8.85;5.50;;;10.50;99.90;;;;;;5154969;27;20093;-72
2023/05/31 00:46:14;;;;;;;6.68;4.50;;;10.50;99.90;;;;;;5155290;27;20086;-72
2023/05/31 00:48:42;;;;;;;6.30;4.32;;;10.50;99.90;;;;;;5155972;27;20042;-73
2023/05/31 00:51:08;;;;;;;5.22;3.92;;;10.40;99.90;;;;;;5155257;27;20051;-71
2023/05/31 00:53:34;;;;;;;8.85;5.97;;;10.30;99.90;;;;;;5155420;27;20069;-71
2023/05/31 00:56:00;;;;;;;7.53;5.75;;;10.30;99.90;;;;;;5137476;27;20038;-72
2023/05/31 00:58:27;;;;;;;6.63;4.40;;;10.30;99.90;;;;;;5154991;27;20046;-72
2023/05/31 01:00:54;;;;;;;8.73;4.47;;;10.30;99.90;;;;;;5136509;27;20047;-72
2023/05/31 01:03:20;;;;;;;8.95;5.13;;;10.20;99.90;;;;;;5154653;27;20486;-72
2023/05/31 01:05:46;;;;;;;5.38;3.88;;;10.30;99.90;;;;;;5155274;27;20047;-72
2023/05/31 01:08:14;;;;;;;9.07;5.13;;;10.30;99.90;;;;;;5154804;27;20043;-72
2023/05/31 01:10:40;;;;;;;7.72;5.20;;;10.20;99.90;;;;;;5155286;27;20046;-72
2023/05/31 01:13:31;;;;;;;9.77;4.93;;;10.20;99.90;;;;;;5154694;27;20523;-72
2023/05/31 01:16:20;;;;;;;6.05;4.65;;;10.20;99.90;;;;;;5154752;27;20038;-72
2023/05/31 01:18:54;;;;;;;7.22;3.97;;;10.20;99.90;;;;;;5136362;27;20055;-72
2023/05/31 01:21:32;;;;;;;8.40;4.45;;;10.10;99.90;;;;;;5154717;27;20046;-72
2023/05/31 01:24:33;;;;;;;7.60;4.78;;;10.10;99.90;;;;;;5154628;27;20046;-72
2023/05/31 01:27:01;;;;;;;5.05;3.53;;;10.00;99.90;;;;;;5131426;27;20058;-72
2023/05/31 01:29:30;;;;;;;6.22;3.95;;;10.00;99.90;;;;;;5155091;27;20130;-72
2023/05/31 01:31:59;;;;;;;6.60;4.60;;;10.00;99.90;;;;;;5155081;27;20171;-72
2023/05/31 01:34:25;;;;;;;5.20;4.13;;;10.00;99.90;;;;;;5154606;27;20095;-72
2023/05/31 01:36:50;;;;;;;7.95;4.22;;;9.90;99.90;;;;;;5136069;27;20444;-73
2023/05/31 01:39:18;;;;;;;5.35;4.03;;;9.90;99.90;;;;;;5153729;27;20047;-73
2023/05/31 01:41:46;;;;;;;7.00;4.75;;;9.90;99.90;;;;;;5154216;27;20478;-73
2023/05/31 01:44:15;;;;;;;6.20;3.92;;;9.90;99.90;;;;;;5154226;27;20484;-73
2023/05/31 01:46:42;;;;;;;9.57;4.78;;;9.90;99.90;;;;;;5154365;27;20062;-72
2023/05/31 01:49:09;;;;;;;7.13;4.93;;;9.90;99.90;;;;;;5154165;27;20078;-72
2023/05/31 01:51:37;;;;;;;5.18;3.30;;;9.90;99.90;;;;;;5154337;27;20065;-72
2023/05/31 01:54:04;;;;;;;7.05;4.90;;;9.90;99.90;;;;;;5136033;27;20039;-72
2023/05/31 01:56:31;;;;;;;8.95;5.82;;;9.90;99.90;;;;;;5155250;27;20545;-71
2023/05/31 01:58:58;;;;;;;11.55;5.70;;;10.00;99.90;;;;;;5156079;27;20189;-73
2023/05/31 02:01:25;;;;;;;7.68;4.97;;;9.90;99.90;;;;;;5155503;27;20090;-72
2023/05/31 02:03:51;;;;;;;8.48;5.18;;;9.90;99.90;;;;;;5154960;27;20134;-72
2023/05/31 02:06:18;;;;;;;7.07;4.70;;;9.90;99.90;;;;;;5154593;27;20043;-72
2023/05/31 02:08:43;;;;;;;8.88;4.63;;;9.90;99.90;;;;;;5155344;27;20051;-73
2023/05/31 02:11:09;;;;;;;11.85;5.65;;;10.00;99.90;;;;;;5154637;27;20500;-73
2023/05/31 02:13:35;;;;;;;8.05;5.00;;;9.90;99.90;;;;;;5154582;27;20039;-73
2023/05/31 02:16:01;;;;;;;10.57;5.30;;;10.00;99.90;;;;;;5154847;27;20046;-72
2023/05/31 02:18:27;;;;;;;7.47;4.50;;;10.00;99.90;;;;;;5154300;27;20475;-72
2023/05/31 02:20:54;;;;;;;10.77;5.88;;;10.00;99.90;;;;;;5154663;27;20054;-72
2023/05/31 02:23:35;;;;;;;9.48;5.70;;;10.00;99.90;;;;;;5156821;27;20130;-73
2023/05/31 02:26:05;;;;;;;10.88;6.38;;;10.00;99.90;;;;;;5136260;27;20183;-74
2023/05/31 02:28:32;;;;;;;11.80;6.13;;;10.00;99.90;;;;;;5120127;27;20050;-72
2023/05/31 02:31:00;;;;;;;9.55;5.75;;;10.00;99.90;;;;;;5156323;27;20050;-72
2023/05/31 02:33:28;;;;;;;12.48;6.32;;;10.00;99.90;;;;;;5135806;27;20046;-72
2023/05/31 02:35:58;;;;;;;10.50;5.85;;;10.00;99.90;;;;;;5155500;27;20038;-72
2023/05/31 02:38:26;;;;;;;11.40;5.78;;;9.90;99.90;;;;;;5153342;27;20043;-71
2023/05/31 02:40:55;;;;;;;7.90;5.90;;;9.90;99.90;;;;;;5135591;27;20102;-72
2023/05/31 02:43:21;;;;;;;13.13;7.03;;;9.90;99.90;;;;;;5153835;27;20074;-71
2023/05/31 02:45:47;;;;;;;13.30;6.97;;;9.90;99.90;;;;;;5154299;27;20111;-72
2023/05/31 02:48:13;;;;;;;9.40;5.57;;;10.00;99.90;;;;;;5153988;27;20051;-72
2023/05/31 02:50:39;;;;;;;12.75;8.15;;;10.00;99.90;;;;;;5135818;27;20042;-72
2023/05/31 02:53:04;;;;;;;11.00;7.40;;;9.90;99.90;;;;;;5157996;27;20038;-72
2023/05/31 02:55:31;;;;;;;15.20;8.40;;;10.00;99.90;;;;;;5157725;27;20431;-73
2023/05/31 02:57:57;;;;;;;12.70;7.85;;;10.00;99.90;;;;;;5139392;27;20046;-72
2023/05/31 03:00:24;;;;;;;12.32;7.13;;;10.00;99.90;;;;;;5157495;27;20046;-73
2023/05/31 03:02:49;;;;;;;10.02;7.20;;;10.00;99.90;;;;;;5157297;27;20043;-72
2023/05/31 03:05:16;;;;;;;14.73;7.68;;;10.00;99.90;;;;;;5121719;27;20394;-72
2023/05/31 03:07:42;;;;;;;11.35;6.03;;;10.00;99.90;;;;;;5157324;27;20148;-72
2023/05/31 03:10:08;;;;;;;15.27;8.63;;;10.00;99.90;;;;;;5139048;27;20481;-72
2023/05/31 03:12:34;;;;;;;14.00;7.53;;;10.00;99.90;;;;;;5157222;27;20469;-72
2023/05/31 03:15:00;;;;;;;12.65;7.72;;;10.00;99.90;;;;;;5157178;27;20046;-72
2023/05/31 03:17:25;;;;;;;12.32;7.28;;;10.00;99.90;;;;;;5157117;27;20047;-72
2023/05/31 03:19:51;;;;;;;13.65;8.57;;;10.00;99.90;;;;;;5157055;27;20126;-72
2023/05/31 03:22:17;;;;;;;18.02;9.05;;;10.00;99.90;;;;;;5157410;27;20041;-72
2023/05/31 03:24:43;;;;;;;11.98;6.63;;;10.00;99.90;;;;;;5156977;27;20042;-72
2023/05/31 03:27:08;;;;;;;11.13;7.50;;;10.00;99.90;;;;;;5156947;27;20069;-72
2023/05/31 03:29:37;;;;;;;10.57;7.28;;;10.00;99.90;;;;;;5156762;27;20126;-72
2023/05/31 03:32:03;;;;;;;15.10;9.30;;;10.10;99.90;;;;;;5156844;27;20043;-72
2023/05/31 03:34:29;;;;;;;12.90;8.60;;;10.10;99.90;;;;;;5157100;27;20503;-72
2023/05/31 03:36:54;;;;;;;11.45;7.63;;;10.10;99.90;;;;;;5156349;27;20053;-71
2023/05/31 03:39:20;;;;;;;12.05;9.27;;;10.10;99.90;;;;;;5156529;27;20047;-71
2023/05/31 03:41:46;;;;;;;15.43;9.20;;;10.10;99.90;;;;;;5156544;27;20074;-71
2023/05/31 03:44:12;;;;;;;14.45;8.93;;;10.10;99.90;;;;;;5156456;27;20096;-72
2023/05/31 03:46:37;;;;;;;12.57;7.68;;;10.10;99.90;;;;;;5156525;27;20174;-72
2023/05/31 03:49:05;;;;;;;14.00;7.88;;;10.10;99.90;;;;;;5156409;27;20116;-71
2023/05/31 03:51:31;;;;;;;13.82;9.20;;;10.20;99.90;;;;;;5156737;27;20056;-72
2023/05/31 03:53:57;;;;;;;20.35;9.02;;;10.20;99.90;;;;;;5156166;27;20051;-72
2023/05/31 03:56:22;;;;;;;13.52;7.97;;;10.20;99.90;;;;;;5156190;27;20103;-72
2023/05/31 03:58:48;;;;;;;12.68;7.72;;;10.20;99.90;;;;;;5156469;27;20047;-71
2023/05/31 04:01:15;;;;;;;17.13;8.70;;;10.20;99.90;;;;;;5137600;27;20051;-72
2023/05/31 04:03:40;;;;;;;15.02;9.02;;;10.30;99.90;;;;;;5155141;27;20122;-71
2023/05/31 04:06:06;;;;;;;15.40;8.30;;;10.30;99.90;;;;;;5156492;27;20146;-72
2023/05/31 04:08:32;;;;;;;12.75;7.47;;;10.40;99.90;;;;;;5155941;27;20068;-72
2023/05/31 04:10:57;;;;;;;15.45;9.07;;;10.30;99.90;;;;;;5155727;27;20102;-72
2023/05/31 04:13:23;;;;;;;16.73;8.32;;;10.40;99.90;;;;;;5137381;27;20039;-72
2023/05/31 04:15:49;;;;;;;12.38;7.53;;;10.40;99.90;;;;;;5155987;27;20043;-72
2023/05/31 04:18:14;;;;;;;15.77;7.95;;;10.50;99.90;;;;;;5155693;27;20039;-72
2023/05/31 04:20:40;;;;;;;12.27;8.10;;;10.50;99.90;;;;;;5155775;27;20046;-72
2023/05/31 04:23:06;;;;;;;21.55;9.18;;;10.60;99.90;;;;;;5155766;27;20463;-72
2023/05/31 04:25:31;;;;;;;18.67;9.65;;;10.70;99.90;;;;;;5137991;27;20474;-71
2023/05/31 04:27:57;;;;;;;15.73;8.43;;;10.70;99.90;;;;;;5138122;27;20176;-72
2023/05/31 04:30:26;;;;;;;14.65;8.05;;;10.70;99.90;;;;;;5137131;27;20046;-71
2023/05/31 04:32:56;;;;;;;14.23;7.60;;;10.80;99.90;;;;;;5155388;27;20470;-72
2023/05/31 04:35:22;;;;;;;13.07;8.07;;;10.80;99.90;;;;;;5137128;27;20576;-72
2023/05/31 04:37:52;;;;;;;13.02;8.73;;;10.90;99.90;;;;;;5155738;27;20050;-72
2023/05/31 04:40:20;;;;;;;16.52;8.88;;;10.90;99.90;;;;;;5155394;27;20049;-71
2023/05/31 04:42:46;;;;;;;18.13;8.77;;;11.00;99.90;;;;;;5155215;27;20035;-71
2023/05/31 04:45:11;;;;;;;13.75;8.40;;;11.00;99.90;;;;;;5155486;27;20130;-72
2023/05/31 04:47:37;;;;;;;17.55;8.80;;;11.10;99.90;;;;;;5155190;27;20391;-71
2023/05/31 04:50:03;;;;;;;17.90;8.25;;;11.10;99.90;;;;;;5154923;27;20046;-72
2023/05/31 04:52:30;;;;;;;17.00;8.05;;;11.20;99.90;;;;;;5154889;27;20118;-72
2023/05/31 04:54:58;;;;;;;11.05;7.88;;;11.20;99.90;;;;;;5154775;27;20046;-72
2023/05/31 04:57:24;;;;;;;13.90;8.82;;;11.30;99.90;;;;;;5136289;27;20513;-72
2023/05/31 04:59:50;;;;;;;8.98;6.32;;;11.30;99.90;;;;;;5154530;27;20051;-72
2023/05/31 05:02:18;;;;;;;13.10;7.25;;;11.40;99.90;;;;;;5136450;27;20047;-72
2023/05/31 05:04:45;;;;;;;13.15;8.32;;;11.40;99.90;;;;;;5154654;27;20589;-72
2023/05/31 05:07:11;;;;;;;12.13;7.88;;;11.50;99.90;;;;;;5154410;27;20069;-72
2023/05/31 05:09:37;;;;;;;15.25;8.88;;;11.50;99.90;;;;;;5136157;27;20043;-72
2023/05/31 05:12:03;;;;;;;13.50;8.27;;;11.60;99.90;;;;;;5136523;27;20045;-72
2023/05/31 05:14:30;;;;;;;14.20;8.88;;;11.60;99.90;;;;;;5154817;27;20039;-73
2023/05/31 05:16:56;;;;;;;16.58;10.15;;;11.70;99.90;;;;;;5154824;27;20043;-74
2023/05/31 05:19:22;;;;;;;13.05;8.25;;;11.70;99.90;;;;;;5154697;27;20038;-73
2023/05/31 05:21:48;;;;;;;14.52;8.32;;;10.40;99.90;;;;;;5154486;27;20550;-72
2023/05/31 05:24:14;;;;;;;13.23;8.35;;;11.80;99.90;;;;;;5154875;27;20043;-72
2023/05/31 05:26:40;;;;;;;13.85;7.97;;;11.90;99.90;;;;;;5136158;27;20053;-72
2023/05/31 05:29:06;;;;;;;15.38;8.30;;;11.90;99.90;;;;;;5154016;27;20046;-73
2023/05/31 05:31:32;;;;;;;14.18;7.88;;;12.00;99.90;;;;;;5154439;27;20114;-72
2023/05/31 05:33:57;;;;;;;13.50;8.35;;;12.10;99.90;;;;;;5136493;27;20054;-72
2023/05/31 05:36:23;;;;;;;12.48;8.00;;;12.20;99.90;;;;;;5136038;27;20480;-73
2023/05/31 05:38:49;;;;;;;14.10;8.30;;;12.30;99.90;;;;;;5154273;27;20062;-73
2023/05/31 05:41:14;;;;;;;11.60;7.80;;;12.40;99.90;;;;;;5154331;27;20399;-73
2023/05/31 05:43:40;;;;;;;20.98;9.70;;;12.40;99.90;;;;;;5154151;27;20146;-73
2023/05/31 05:46:06;;;;;;;14.88;8.82;;;12.50;99.90;;;;;;5154321;27;20096;-72
2023/05/31 05:48:33;;;;;;;20.45;8.43;;;12.60;99.90;;;;;;5154541;27;20047;-73
2023/05/31 05:50:59;;;;;;;14.07;7.75;;;12.70;99.90;;;;;;5154174;27;20502;-71
2023/05/31 05:53:25;;;;;;;16.17;9.00;;;12.80;99.90;;;;;;5154120;27;20043;-71
2023/05/31 05:55:52;;;;;;;13.73;9.45;;;13.00;99.90;;;;;;5154538;27;20137;-72
2023/05/31 05:58:18;;;;;;;13.85;7.35;;;13.10;99.90;;;;;;5154385;27;20050;-72
2023/05/31 06:00:48;;;;;;;9.52;6.40;;;13.20;99.90;;;;;;5153971;27;20046;-72
2023/05/31 06:03:15;;;;;;;13.48;7.70;;;13.20;99.90;;;;;;5154071;27;20121;-72
2023/05/31 06:05:44;;;;;;;16.95;7.57;;;13.20;99.90;;;;;;5154027;27;20057;-73
2023/05/31 06:08:12;;;;;;;15.80;8.20;;;13.30;99.90;;;;;;5154529;27;20038;-72
2023/05/31 06:10:40;;;;;;;12.25;7.10;;;13.30;99.90;;;;;;5118497;27;20054;-73
2023/05/31 06:13:06;;;;;;;10.55;7.50;;;13.50;99.90;;;;;;5154065;27;20078;-73
2023/05/31 06:15:33;;;;;;;15.00;7.28;;;13.60;99.90;;;;;;5118793;27;20050;-73
2023/05/31 06:17:58;;;;;;;10.75;6.47;;;13.70;99.90;;;;;;5153860;27;20094;-72
2023/05/31 06:20:25;;;;;;;13.23;7.53;;;13.90;99.90;;;;;;5154500;27;20043;-73
2023/05/31 06:22:52;;;;;;;12.48;6.38;;;14.40;99.90;;;;;;5153899;27;20061;-72
2023/05/31 06:25:19;;;;;;;12.75;6.97;;;15.30;99.90;;;;;;5135874;27;20053;-75
2023/05/31 06:27:45;;;;;;;12.20;6.05;;;15.80;99.90;;;;;;5158316;27;20113;-73
2023/05/31 06:30:15;;;;;;;8.00;5.18;;;16.60;99.90;;;;;;5158144;27;20038;-73
2023/05/31 06:32:41;;;;;;;8.43;5.47;;;17.30;99.90;;;;;;5106564;27;20038;-72
2023/05/31 06:35:07;;;;;;;9.18;4.85;;;17.90;99.90;;;;;;5157717;27;20610;-71
2023/05/31 06:37:33;;;;;;;9.32;5.50;;;18.60;99.90;;;;;;5139522;27;20049;-73
2023/05/31 06:39:59;;;;;;;9.45;4.72;;;19.10;99.90;;;;;;5139317;27;20131;-72
2023/05/31 06:42:24;;;;;;;9.57;4.75;;;19.80;99.90;;;;;;5139274;27;20089;-72
2023/05/31 06:44:51;;;;;;;7.88;4.65;;;20.40;99.90;;;;;;5157224;27;20086;-74
2023/05/31 06:47:16;;;;;;;7.43;4.63;;;20.50;99.90;;;;;;5158167;27;20050;-72
2023/05/31 06:49:42;;;;;;;6.60;4.60;;;20.60;99.90;;;;;;5139136;27;20467;-72
2023/05/31 06:52:10;;;;;;;6.80;3.95;;;20.50;99.90;;;;;;5139230;27;20475;-73
2023/05/31 06:54:37;;;;;;;7.43;3.90;;;20.70;99.90;;;;;;5157490;27;20043;-72
2023/05/31 06:57:03;;;;;;;6.28;3.75;;;20.80;99.90;;;;;;5157798;27;20133;-71
2023/05/31 06:59:29;;;;;;;7.15;4.10;;;21.10;99.90;;;;;;5139108;27;20542;-71
2023/05/31 07:01:55;;;;;;;7.93;4.43;;;20.90;99.90;;;;;;5157348;27;20087;-72
2023/05/31 07:04:21;;;;;;;8.13;4.03;;;21.10;99.90;;;;;;5157069;27;20064;-72
2023/05/31 07:06:47;;;;;;;10.30;3.80;;;21.30;99.90;;;;;;5138590;27;20492;-71
2023/05/31 07:09:13;;;;;;;7.38;3.75;;;21.60;99.90;;;;;;5157113;27;20051;-72
2023/05/31 07:11:42;;;;;;;10.13;4.63;;;22.20;99.90;;;;;;5157015;27;20057;-73
2023/05/31 07:14:09;;;;;;;6.20;3.45;;;21.50;99.90;;;;;;5156965;27;20093;-74
2023/05/31 07:16:35;;;;;;;9.30;4.03;;;22.10;99.90;;;;;;5157103;27;20046;-73
2023/05/31 07:19:04;;;;;;;6.28;3.25;;;22.30;99.90;;;;;;5138762;27;20047;-72
2023/05/31 07:21:30;;;;;;;4.53;3.20;;;21.80;98.10;;;;;;5138405;27;20050;-72
2023/05/31 07:23:56;;;;;;;5.28;3.08;;;22.10;99.90;;;;;;5157070;27;20039;-72
2023/05/31 07:26:23;;;;;;;4.20;2.97;;;22.50;99.90;;;;;;5138898;27;20049;-71
2023/05/31 07:28:52;;;;;;;4.72;2.83;;;22.70;99.90;;;;;;5156707;27;20065;-73
2023/05/31 07:31:19;;;;;;;10.02;3.58;;;22.10;99.90;;;;;;5139046;27;20053;-72
2023/05/31 07:33:45;;;;;;;4.22;3.05;;;22.40;99.90;;;;;;5156879;27;20062;-72
2023/05/31 07:36:11;;;;;;;9.45;3.08;;;22.30;99.70;;;;;;5156431;27;20531;-73
2023/05/31 07:38:37;;;;;;;6.93;2.78;;;23.10;99.90;;;;;;5155161;27;20053;-72
2023/05/31 07:41:03;;;;;;;3.65;2.60;;;23.50;99.90;;;;;;5156324;27;20125;-73
2023/05/31 07:43:32;;;;;;;3.80;2.47;;;23.90;99.20;;;;;;5120830;27;20045;-72
2023/05/31 07:45:57;;;;;;;6.35;2.80;;;24.40;98.20;;;;;;5138633;27;20047;-72
2023/05/31 07:48:24;;;;;;;3.72;2.72;;;24.60;98.30;;;;;;5138398;27;20051;-73
2023/05/31 07:50:50;;;;;;;3.35;2.13;;;24.90;97.70;;;;;;5138330;27;20042;-72
2023/05/31 07:53:16;;;;;;;2.92;2.08;;;25.20;97.10;;;;;;5137991;27;20035;-72
2023/05/31 07:55:42;;;;;;;4.25;2.72;;;25.60;96.50;;;;;;5156381;27;20153;-74
2023/05/31 07:58:07;;;;;;;3.75;2.15;;;25.60;96.00;;;;;;5156646;27;20095;-74
2023/05/31 08:00:33;;;;;;;3.13;2.08;;;25.20;95.40;;;;;;5156090;27;20125;-74
2023/05/31 08:02:59;;;;;;;6.13;2.20;;;25.40;95.60;;;;;;5137684;27;20049;-73
2023/05/31 08:05:26;;;;;;;4.20;2.97;;;25.50;95.20;;;;;;5156336;27;20047;-72
2023/05/31 08:07:52;;;;;;;3.67;2.00;;;25.00;94.50;;;;;;5137511;27;20038;-72
2023/05/31 08:10:18;;;;;;;10.63;3.00;;;25.10;95.20;;;;;;5156153;27;20128;-73
2023/05/31 08:12:43;;;;;;;5.82;2.20;;;25.20;95.00;;;;;;5120272;27;20039;-72
2023/05/31 08:15:13;;;;;;;9.55;2.67;;;24.70;94.90;;;;;;5155699;27;20118;-76
2023/05/31 08:17:40;;;;;;;3.65;2.03;;;24.30;95.10;;;;;;5155661;27;20054;-73
2023/05/31 08:20:06;;;;;;;4.05;2.50;;;24.10;95.50;;;;;;5137484;27;20043;-73
2023/05/31 08:22:33;;;;;;;4.40;1.92;;;24.20;95.10;;;;;;5137152;27;20434;-73
2023/05/31 08:24:59;;;;;;;3.38;2.72;;;24.00;95.20;;;;;;5155668;27;20043;-72
2023/05/31 08:27:24;;;;;;;2.72;2.13;;;24.50;95.20;;;;;;5155582;27;20034;-72
2023/05/31 08:29:50;;;;;;;9.32;2.58;;;24.70;94.50;;;;;;5156388;27;20507;-74
2023/05/31 08:32:16;;;;;;;4.53;2.20;;;24.40;94.20;;;;;;5157178;27;20103;-71
2023/05/31 08:34:43;;;;;;;3.10;2.13;;;24.60;94.50;;;;;;5158037;27;20115;-71
2023/05/31 08:37:09;;;;;;;4.75;2.08;;;24.30;94.50;;;;;;5138302;27;20046;-72
2023/05/31 08:39:35;;;;;;;3.50;2.00;;;24.40;94.50;;;;;;5156590;27;20118;-72
2023/05/31 08:42:05;;;;;;;3.95;2.35;;;24.20;94.70;;;;;;5156326;27;20495;-72
2023/05/31 08:44:31;;;;;;;3.92;2.45;;;24.70;94.60;;;;;;5156153;27;20130;-73
2023/05/31 08:47:01;;;;;;;3.90;1.85;;;24.60;94.30;;;;;;5154951;27;20559;-72
2023/05/31 08:49:28;;;;;;;5.07;2.08;;;24.50;92.60;;;;;;5154949;27;20050;-73
2023/05/31 08:51:55;;;;;;;4.97;2.22;;;24.70;94.10;;;;;;5155212;27;20432;-73
2023/05/31 08:54:21;;;;;;;5.13;2.30;;;24.70;93.90;;;;;;5155051;27;20097;-73
2023/05/31 08:56:48;;;;;;;4.40;2.28;;;24.80;94.00;;;;;;5155120;27;20473;-73
2023/05/31 08:59:17;;;;;;;5.90;2.42;;;25.10;93.90;;;;;;5154943;27;20050;-73
2023/05/31 09:01:44;;;;;;;5.38;2.60;;;25.10;93.40;;;;;;5155452;27;20089;-72
2023/05/31 09:04:10;;;;;;;4.50;2.72;;;25.00;93.50;;;;;;5154870;27;20050;-72
2023/05/31 09:06:36;;;;;;;4.65;2.60;;;25.10;93.40;;;;;;5136528;27;20099;-71
2023/05/31 09:09:02;;;;;;;4.63;2.50;;;25.00;92.90;;;;;;5154859;27;20035;-72
2023/05/31 09:11:28;;;;;;;4.78;2.80;;;24.70;92.10;;;;;;5154661;27;20054;-71
2023/05/31 09:13:54;;;;;;;4.95;2.53;;;24.60;92.90;;;;;;5136072;27;20043;-71
2023/05/31 09:16:22;;;;;;;4.70;2.90;;;24.90;92.50;;;;;;5154891;27;20095;-72
2023/05/31 09:18:48;;;;;;;5.32;3.20;;;24.60;92.80;;;;;;5154451;27;20050;-71
2023/05/31 09:21:14;;;;;;;6.18;2.88;;;25.40;93.00;;;;;;5154973;27;20050;-73
2023/05/31 09:23:57;;;;;;;4.30;2.67;;;24.80;93.20;;;;;;5154787;27;20047;-72
2023/05/31 09:26:23;;;;;;;6.60;3.28;;;25.00;91.20;;;;;;5154410;27;20081;-72
2023/05/31 09:28:53;;;;;;;7.47;2.97;;;24.60;91.20;;;;;;5136466;27;20130;-72
2023/05/31 09:31:19;;;;;;;5.25;3.17;;;24.20;92.50;;;;;;5136083;27;20370;-72
2023/05/31 09:33:51;;;;;;;5.78;2.88;;;24.10;92.90;;;;;;5154545;27;20069;-71
2023/05/31 09:36:25;;;;;;;9.23;3.35;;;24.30;92.60;;;;;;5154346;27;20042;-71
2023/05/31 09:39:00;;;;;;;5.78;3.53;;;24.50;91.90;;;;;;5135732;27;20043;-71
2023/05/31 09:41:27;;;;;;;8.07;3.70;;;24.60;91.80;;;;;;5154286;27;20042;-71
2023/05/31 09:43:52;;;;;;;6.15;3.08;;;24.10;92.00;;;;;;5153869;27;20051;-73
2023/05/31 09:46:20;;;;;;;7.47;3.25;;;24.20;93.00;;;;;;5154654;27;20057;-73
2023/05/31 09:48:56;;;;;;;11.35;4.10;;;24.00;93.20;;;;;;5154596;27;20054;-71
2023/05/31 09:51:22;;;;;;;8.27;3.78;;;23.20;93.90;;;;;;5153791;27;20503;-73
2023/05/31 09:53:51;;;;;;;8.27;4.07;;;23.20;94.50;;;;;;5153785;27;20042;-73
2023/05/31 09:56:21;;;;;;;7.63;4.53;;;22.90;94.60;;;;;;5153911;27;20042;-72
2023/05/31 09:58:48;;;;;;;8.02;4.32;;;22.90;95.30;;;;;;5154355;27;20085;-71
2023/05/31 10:01:15;;;;;;;10.75;4.35;;;22.80;94.50;;;;;;5152990;27;20047;-70
2023/05/31 10:03:46;;;;;;;8.02;4.38;;;22.70;95.50;;;;;;5154243;27;20053;-71
2023/05/31 10:06:14;;;;;;;7.30;3.95;;;23.00;95.20;;;;;;5154459;27;20130;-71
2023/05/31 10:08:40;;;;;;;6.78;4.75;;;22.50;94.70;;;;;;5136014;27;20042;-72
2023/05/31 10:11:08;;;;;;;8.05;4.55;;;22.20;95.20;;;;;;5154363;27;20123;-71
2023/05/31 10:13:34;;;;;;;12.82;4.30;;;22.20;95.50;;;;;;5153678;27;20039;-72
2023/05/31 10:16:05;;;;;;;6.78;3.10;;;21.90;95.60;;;;;;5135125;27;20055;-72
2023/05/31 10:18:35;;;;;;;7.57;4.35;;;22.60;95.60;;;;;;5154201;27;20061;-72
2023/05/31 10:21:32;;;;;;;7.70;4.82;;;22.00;95.50;;;;;;5154483;27;20134;-72
2023/05/31 10:24:14;;;;;;;6.30;3.65;;;21.60;95.40;;;;;;5152681;27;20148;-70
2023/05/31 10:27:08;;;;;;;7.38;4.03;;;21.80;95.40;;;;;;5135778;27;20389;-72
2023/05/31 10:29:40;;;;;;;6.78;4.20;;;21.70;96.00;;;;;;5153756;27;20057;-71
2023/05/31 10:32:40;;;;;;;7.05;4.32;;;22.10;96.10;;;;;;5154309;27;20045;-71
2023/05/31 10:35:08;;;;;;;8.50;5.10;;;22.00;96.00;;;;;;5134792;27;20065;-72
2023/05/31 10:37:34;;;;;;;8.52;4.35;;;21.90;96.10;;;;;;5154054;27;20043;-71
2023/05/31 10:40:09;;;;;;;6.05;4.10;;;22.10;95.70;;;;;;5153502;27;20107;-72
2023/05/31 10:42:53;;;;;;;4.95;3.83;;;21.70;95.80;;;;;;5135283;27;20380;-71
2023/05/31 10:45:30;;;;;;;8.63;4.50;;;22.10;95.60;;;;;;5154127;27;20209;-71
2023/05/31 10:47:59;;;;;;;7.03;4.75;;;22.10;95.60;;;;;;5153660;27;20088;-71
2023/05/31 10:50:25;;;;;;;8.60;5.10;;;22.60;95.70;;;;;;5153947;27;20054;-71
2023/05/31 10:52:51;;;;;;;6.53;4.75;;;22.30;95.60;;;;;;5153581;27;20042;-73
2023/05/31 10:55:22;;;;;;;5.35;4.32;;;21.90;95.50;;;;;;5153410;27;20046;-72
2023/05/31 10:57:53;;;;;;;9.90;4.88;;;22.10;95.50;;;;;;5153468;27;20054;-71
2023/05/31 11:00:20;;;;;;;4.97;4.32;;;22.10;95.60;;;;;;5153280;27;20058;-71
2023/05/31 11:02:51;;;;;;;5.10;4.50;;;21.70;95.50;;;;;;5153279;27;20042;-71
2023/05/31 11:05:27;;;;;;;8.10;4.43;;;21.30;96.00;;;;;;5153334;27;20099;-72
2023/05/31 11:07:54;;;;;;;7.47;4.57;;;21.30;95.80;;;;;;5136430;27;20155;-72
2023/05/31 11:10:34;;;;;;;11.88;5.15;;;21.10;96.10;;;;;;5153948;27;20112;-70
2023/05/31 11:13:04;;;;;;;7.63;4.50;;;21.30;96.10;;;;;;5137249;27;20455;-72
2023/05/31 11:15:44;;;;;;;8.60;4.40;;;21.60;95.80;;;;;;5157581;27;20182;-72
2023/05/31 11:18:36;;;;;;;7.93;4.63;;;21.60;95.20;;;;;;5157311;27;20038;-71
2023/05/31 11:21:04;;;;;;;7.25;5.00;;;21.20;95.70;;;;;;5156037;27;20043;-70
2023/05/31 11:23:31;;;;;;;9.43;5.40;;;21.20;96.20;;;;;;5156865;27;20075;-70
2023/05/31 11:26:26;;;;;;;6.15;4.88;;;21.10;96.10;;;;;;5157199;27;20050;-71
2023/05/31 11:28:55;;;;;;;9.73;4.97;;;20.80;96.30;;;;;;5134082;27;20110;-71
2023/05/31 11:31:57;;;;;;;6.85;5.25;;;20.80;96.60;;;;;;5138966;27;20360;-71
2023/05/31 11:34:29;;;;;;;9.88;6.10;;;20.40;96.90;;;;;;5156599;27;20051;-71
2023/05/31 11:37:13;;;;;;;10.98;5.15;;;20.00;98.10;;;;;;5138042;27;20475;-71
2023/05/31 11:39:44;;;;;;;11.48;5.32;;;20.10;98.00;;;;;;5157075;27;20042;-70
2023/05/31 11:42:10;;;;;;;7.78;5.05;;;19.90;97.50;;;;;;5156984;27;20039;-71
2023/05/31 11:44:45;;;;;;;8.77;5.15;;;19.80;97.90;;;;;;5157114;27;20054;-71
2023/05/31 11:47:25;;;;;;;6.97;4.97;;;20.00;97.50;;;;;;5158236;27;20051;-72
2023/05/31 11:49:50;;;;;;;6.88;4.95;;;20.10;97.60;;;;;;5158068;27;20043;-72
2023/05/31 11:52:18;;;;;;;6.20;4.70;;;20.60;97.30;;;;;;5137879;27;20051;-70
2023/05/31 11:54:45;;;;;;;8.57;4.63;;;20.50;97.00;;;;;;5155972;27;20506;-72
2023/05/31 11:57:11;;;;;;;8.43;4.32;;;20.50;97.00;;;;;;5156327;27;20061;-71
2023/05/31 11:59:39;;;;;;;7.47;4.30;;;20.70;97.30;;;;;;5156118;27;20042;-71
2023/05/31 12:02:06;;;;;;;7.07;5.03;;;21.10;97.30;;;;;;5138091;27;20110;-73
2023/05/31 12:04:39;;;;;;;9.13;4.68;;;20.50;97.50;;;;;;5137922;27;20043;-70
2023/05/31 12:07:09;;;;;;;8.13;4.57;;;20.50;97.30;;;;;;5156753;27;20043;-71
2023/05/31 12:09:35;;;;;;;9.23;4.55;;;20.30;97.50;;;;;;5156149;27;20137;-71
2023/05/31 12:12:10;;;;;;;11.48;4.70;;;20.20;97.70;;;;;;5156183;27;20099;-71
2023/05/31 12:14:36;;;;;;;7.32;4.47;;;20.10;97.80;;;;;;5155612;27;20050;-70
2023/05/31 12:17:05;;;;;;;7.75;4.82;;;19.90;98.30;;;;;;5137466;27;20515;-71
2023/05/31 12:19:32;;;;;;;6.45;4.30;;;20.10;97.80;;;;;;5156335;27;20130;-71
2023/05/31 12:21:58;;;;;;;5.50;4.28;;;19.80;98.20;;;;;;5156319;27;20046;-71
2023/05/31 12:24:24;;;;;;;6.28;4.32;;;20.00;97.80;;;;;;5154995;27;20042;-70
2023/05/31 12:26:51;;;;;;;8.20;4.63;;;20.30;97.90;;;;;;5156148;27;20042;-72
2023/05/31 12:29:17;;;;;;;8.93;4.53;;;19.80;97.90;;;;;;5156236;27;20073;-70
2023/05/31 12:31:45;;;;;;;7.72;4.90;;;19.60;98.10;;;;;;5155721;27;20049;-70
2023/05/31 12:34:17;;;;;;;6.75;4.30;;;20.00;98.40;;;;;;5137802;27;20118;-73
2023/05/31 12:36:45;;;;;;;8.88;5.45;;;20.00;98.10;;;;;;5155593;27;20042;-70
2023/05/31 12:39:21;;;;;;;7.68;5.20;;;19.90;97.90;;;;;;5156031;27;20179;-71
2023/05/31 12:41:48;;;;;;;6.53;4.80;;;19.50;98.90;;;;;;5137439;27;20039;-72
2023/05/31 12:44:19;;;;;;;5.47;4.15;;;19.50;98.40;;;;;;5155202;27;20133;-71
2023/05/31 12:46:45;;;;;;;9.57;4.63;;;19.70;98.20;;;;;;5155477;27;20046;-71
2023/05/31 12:49:19;;;;;;;9.10;4.53;;;20.00;97.90;;;;;;5155744;27;20042;-72